Time;durP1;ratioP1;P1;durP2;ratioP2;P2;SDS_P1;SDS_P2;PMS_P1;PMS_P2;Temp;Humidity;BMP_temperature;BMP_pressure;BME280_temperature;BME280_humidity;BME280_pressure;Samples;Min_cycle;Max_cycle;Signal;HPM_P1;HPM_P2
2022/07/26 07:01:17;;;;;;;5.43;3.13;;;;;;;;;;12007940;23;17001788;-82
2022/07/26 07:06:18;;;;;;;4.78;3.25;;;;;;;;;;12645333;23;20038;-84
2022/07/26 07:11:19;;;;;;;3.63;2.53;;;;;;;;;;12697721;23;20002;-86
2022/07/26 07:16:20;;;;;;;6.65;3.00;;;;;;;;;;12692223;23;20002;-84
2022/07/26 07:21:21;;;;;;;7.25;4.97;;;;;;;;;;12689571;23;20006;-86
2022/07/26 07:26:22;;;;;;;9.25;5.63;;;;;;;;;;12687050;23;20021;-85
2022/07/26 07:31:24;;;;;;;8.15;5.90;;;;;;;;;;12687182;23;20010;-86
2022/07/26 07:36:25;;;;;;;6.90;5.55;;;;;;;;;;12690360;23;20021;-86
2022/07/26 07:41:26;;;;;;;7.53;5.10;;;;;;;;;;12691225;23;20012;-86
2022/07/26 07:46:29;;;;;;;8.77;4.40;;;;;;;;;;12689736;23;20085;-85
2022/07/26 07:51:31;;;;;;;6.40;4.30;;;;;;;;;;12666703;23;20013;-85
2022/07/26 07:56:32;;;;;;;10.57;7.25;;;;;;;;;;12675652;23;20006;-85
2022/07/26 08:01:33;;;;;;;9.05;5.88;;;;;;;;;;12694612;23;20002;-84
2022/07/26 08:06:34;;;;;;;10.35;5.88;;;;;;;;;;12695841;23;20017;-85
2022/07/26 08:11:38;;;;;;;6.82;5.07;;;;;;;;;;12679363;23;20009;-83
2022/07/26 08:16:39;;;;;;;10.27;4.80;;;;;;;;;;12698015;23;20120;-84
2022/07/26 08:21:41;;;;;;;6.28;4.32;;;;;;;;;;12673981;23;20009;-85
2022/07/26 08:26:42;;;;;;;6.30;3.67;;;;;;;;;;12679619;23;20017;-85
2022/07/26 08:31:44;;;;;;;7.15;5.07;;;;;;;;;;12681204;23;20002;-85
2022/07/26 08:36:48;;;;;;;6.47;3.97;;;;;;;;;;12682737;23;20018;-86
2022/07/26 08:41:52;;;;;;;6.97;4.03;;;;;;;;;;12677759;23;20018;-82
2022/07/26 08:46:54;;;;;;;8.10;2.80;;;;;;;;;;12587741;23;20022;-82
2022/07/26 08:52:01;;;;;;;5.57;3.05;;;;;;;;;;12556381;23;20014;-84
2022/07/26 08:57:10;;;;;;;6.10;2.70;;;;;;;;;;12556595;23;20377;-83
2022/07/26 09:02:12;;;;;;;4.43;2.50;;;;;;;;;;12576291;23;20062;-83
2022/07/26 09:07:15;;;;;;;3.55;2.22;;;;;;;;;;12548920;23;20062;-82
2022/07/26 09:12:17;;;;;;;5.50;2.88;;;;;;;;;;12546977;23;20007;-83
2022/07/26 09:17:21;;;;;;;5.05;3.00;;;;;;;;;;12557830;23;20003;-82
2022/07/26 09:22:23;;;;;;;3.58;2.10;;;;;;;;;;12559316;23;20086;-82
2022/07/26 09:27:24;;;;;;;3.78;1.92;;;;;;;;;;12554559;23;20011;-84
2022/07/26 09:32:31;;;;;;;3.20;2.22;;;;;;;;;;12544604;23;20007;-82
2022/07/26 09:37:39;;;;;;;4.35;2.30;;;;;;;;;;12566778;23;20443;-82
2022/07/26 09:42:54;;;;;;;4.90;2.38;;;;;;;;;;12544954;23;20082;-82
2022/07/26 09:47:55;;;;;;;2.80;2.25;;;;;;;;;;12548226;23;20007;-81
2022/07/26 09:52:57;;;;;;;4.18;2.70;;;;;;;;;;12551094;23;20028;-80
2022/07/26 09:58:03;;;;;;;2.90;2.10;;;;;;;;;;12548133;23;20010;-81
2022/07/26 10:03:04;;;;;;;3.25;1.30;;;;;;;;;;12540597;23;20109;-79
2022/07/26 10:08:15;;;;;;;5.25;1.73;;;;;;;;;;12539187;23;20006;-80
2022/07/26 10:13:36;;;;;;;4.57;1.55;;;;;;;;;;12550048;23;20371;-79
2022/07/26 10:18:39;;;;;;;2.20;1.40;;;;;;;;;;12545995;23;20011;-81
2022/07/26 10:23:41;;;;;;;2.72;1.50;;;;;;;;;;12553534;23;20093;-80
2022/07/26 10:28:42;;;;;;;2.92;1.73;;;;;;;;;;12547695;23;20079;-80
2022/07/26 10:33:46;;;;;;;2.63;1.85;;;;;;;;;;12548340;23;20003;-79
2022/07/26 10:39:18;;;;;;;4.65;1.70;;;;;;;;;;12576324;23;20018;-80
2022/07/26 10:44:27;;;;;;;2.78;1.70;;;;;;;;;;12564843;23;20019;-81
2022/07/26 10:49:35;;;;;;;5.32;1.60;;;;;;;;;;12527041;23;20059;-81
2022/07/26 10:54:56;;;;;;;2.40;1.20;;;;;;;;;;12586618;23;20024;-79
2022/07/26 10:59:58;;;;;;;2.88;1.20;;;;;;;;;;12567440;23;20030;-80
2022/07/26 11:05:00;;;;;;;2.97;1.27;;;;;;;;;;12541679;23;20010;-80
2022/07/26 11:10:01;;;;;;;3.45;2.08;;;;;;;;;;12565834;23;20082;-79
2022/07/26 11:15:13;;;;;;;5.68;3.25;;;;;;;;;;12571292;23;20038;-79
2022/07/26 11:20:29;;;;;;;3.20;1.60;;;;;;;;;;12575762;23;20054;-79
2022/07/26 11:25:47;;;;;;;1.25;0.85;;;;;;;;;;12559883;23;20065;-81
2022/07/26 11:30:58;;;;;;;1.90;0.98;;;;;;;;;;12552693;23;20003;-80
2022/07/26 11:36:04;;;;;;;3.28;0.82;;;;;;;;;;12551720;23;20007;-80
2022/07/26 11:41:06;;;;;;;2.20;0.80;;;;;;;;;;12577375;23;20059;-80
2022/07/26 11:46:07;;;;;;;1.42;0.88;;;;;;;;;;12551809;23;20142;-80
2022/07/26 11:51:12;;;;;;;1.88;0.80;;;;;;;;;;12603400;23;20014;-79
2022/07/26 11:56:22;;;;;;;1.58;0.70;;;;;;;;;;12585665;23;19995;-79
2022/07/26 12:01:24;;;;;;;1.80;1.15;;;;;;;;;;12598966;23;20018;-80
2022/07/26 12:06:25;;;;;;;2.10;1.08;;;;;;;;;;12558236;23;20106;-78
2022/07/26 12:11:37;;;;;;;0.75;0.52;;;;;;;;;;12558466;23;20109;-79
2022/07/26 12:16:38;;;;;;;2.25;0.98;;;;;;;;;;12545487;23;20007;-79
2022/07/26 12:21:40;;;;;;;0.85;0.50;;;;;;;;;;12546421;23;20340;-79
2022/07/26 12:26:41;;;;;;;1.83;0.55;;;;;;;;;;12570006;23;20011;-79
2022/07/26 12:31:42;;;;;;;1.50;0.60;;;;;;;;;;12544832;23;20003;-78
2022/07/26 12:36:43;;;;;;;0.95;0.50;;;;;;;;;;12541023;23;20432;-79
2022/07/26 12:41:46;;;;;;;1.23;0.70;;;;;;;;;;12566315;23;20003;-80
2022/07/26 12:46:47;;;;;;;1.13;0.50;;;;;;;;;;12539631;23;20042;-78
2022/07/26 12:51:48;;;;;;;0.85;0.70;;;;;;;;;;12565969;23;20006;-78
2022/07/26 12:56:49;;;;;;;1.23;0.47;;;;;;;;;;12541233;23;20006;-79
2022/07/26 13:01:50;;;;;;;0.90;0.50;;;;;;;;;;12566734;23;20011;-80
2022/07/26 13:06:51;;;;;;;20.63;18.48;;;;;;;;;;12541417;23;20090;-80
2022/07/26 13:11:52;;;;;;;1.90;0.80;;;;;;;;;;12542470;23;20007;-80
2022/07/26 13:16:54;;;;;;;1.75;1.10;;;;;;;;;;12539620;23;20013;-80
2022/07/26 13:21:55;;;;;;;1.38;0.70;;;;;;;;;;12570013;23;20010;-79
2022/07/26 13:26:57;;;;;;;9.98;8.68;;;;;;;;;;12544286;23;20007;-79
2022/07/26 13:31:58;;;;;;;2.42;1.25;;;;;;;;;;12541227;23;19999;-79
2022/07/26 13:37:00;;;;;;;1.60;0.80;;;;;;;;;;12539513;23;20270;-79
2022/07/26 13:42:01;;;;;;;0.90;0.50;;;;;;;;;;12538936;23;20070;-80
2022/07/26 13:47:02;;;;;;;1.10;0.65;;;;;;;;;;12539033;23;20014;-79
2022/07/26 13:52:06;;;;;;;2.72;0.68;;;;;;;;;;12563490;23;20380;-80
2022/07/26 13:57:08;;;;;;;1.02;0.50;;;;;;;;;;12564305;23;19999;-78
2022/07/26 14:02:09;;;;;;;1.48;0.70;;;;;;;;;;12563977;23;20018;-80
2022/07/26 14:07:10;;;;;;;3.58;3.17;;;;;;;;;;12539065;23;20018;-80
2022/07/26 14:12:14;;;;;;;2.17;0.60;;;;;;;;;;12537952;23;20471;-80
2022/07/26 14:17:20;;;;;;;1.15;0.60;;;;;;;;;;12537066;23;20014;-80
2022/07/26 14:22:21;;;;;;;1.88;0.70;;;;;;;;;;12541782;23;20367;-80
2022/07/26 14:27:22;;;;;;;1.92;0.80;;;;;;;;;;12542851;23;20033;-80
2022/07/26 14:32:23;;;;;;;2.35;1.00;;;;;;;;;;12543410;23;20023;-79
2022/07/26 14:37:24;;;;;;;0.88;0.63;;;;;;;;;;12542628;23;20053;-79
2022/07/26 14:42:25;;;;;;;3.63;0.95;;;;;;;;;;12543609;23;20015;-79
2022/07/26 14:47:26;;;;;;;2.45;0.90;;;;;;;;;;12543579;23;20138;-80
2022/07/26 14:52:27;;;;;;;2.22;0.77;;;;;;;;;;12544088;23;20007;-80
2022/07/26 14:57:29;;;;;;;1.70;0.80;;;;;;;;;;12546621;23;20011;-80
2022/07/26 15:02:31;;;;;;;1.42;0.70;;;;;;;;;;12572795;23;20007;-80
2022/07/26 15:07:46;;;;;;;1.10;0.50;;;;;;;;;;12546290;23;20384;-80
2022/07/26 15:12:51;;;;;;;2.33;0.80;;;;;;;;;;12566523;23;20007;-79
2022/07/26 15:17:52;;;;;;;2.35;0.93;;;;;;;;;;12543024;23;20006;-80
2022/07/26 15:22:54;;;;;;;2.22;1.65;;;;;;;;;;12574142;23;20003;-80
2022/07/26 15:28:04;;;;;;;1.25;0.80;;;;;;;;;;12584021;23;20010;-81
2022/07/26 15:33:06;;;;;;;1.67;0.90;;;;;;;;;;12552731;23;20094;-81
2022/07/26 15:38:07;;;;;;;1.10;0.60;;;;;;;;;;12547873;23;20235;-81
2022/07/26 15:43:13;;;;;;;2.17;0.82;;;;;;;;;;12550642;23;20094;-81
2022/07/26 15:48:15;;;;;;;1.63;0.70;;;;;;;;;;12527428;23;20017;-81
2022/07/26 15:53:23;;;;;;;1.75;0.70;;;;;;;;;;12575796;23;20006;-81
2022/07/26 15:58:28;;;;;;;7.40;5.18;;;;;;;;;;12551295;23;20007;-80
2022/07/26 16:03:30;;;;;;;1.33;0.85;;;;;;;;;;12554267;23;20003;-80
2022/07/26 16:08:34;;;;;;;2.55;1.23;;;;;;;;;;12550511;23;20015;-81
2022/07/26 16:13:44;;;;;;;2.53;0.90;;;;;;;;;;12528654;23;20022;-80
2022/07/26 16:18:45;;;;;;;3.05;1.30;;;;;;;;;;12553901;23;20011;-81
2022/07/26 16:23:47;;;;;;;5.40;4.55;;;;;;;;;;12545460;23;20010;-80
2022/07/26 16:28:48;;;;;;;3.38;1.70;;;;;;;;;;12543688;23;20011;-81
2022/07/26 16:33:49;;;;;;;1.95;1.10;;;;;;;;;;12539585;23;19998;-80
2022/07/26 16:38:50;;;;;;;2.10;1.00;;;;;;;;;;12546141;23;20347;-80
2022/07/26 16:43:51;;;;;;;2.60;1.55;;;;;;;;;;12548668;23;20047;-81
2022/07/26 16:48:52;;;;;;;4.10;1.20;;;;;;;;;;12549732;23;20017;-82
2022/07/26 16:53:54;;;;;;;2.55;1.52;;;;;;;;;;12540646;23;20006;-80
2022/07/26 16:58:55;;;;;;;1.65;0.90;;;;;;;;;;12543707;23;20014;-81
2022/07/26 17:03:56;;;;;;;2.15;1.13;;;;;;;;;;12540492;23;20082;-81
2022/07/26 17:08:57;;;;;;;2.35;0.98;;;;;;;;;;12541606;23;20007;-81
2022/07/26 17:13:58;;;;;;;2.17;0.82;;;;;;;;;;12539437;23;20007;-81
2022/07/26 17:18:59;;;;;;;2.55;1.08;;;;;;;;;;12540020;23;20006;-80
2022/07/26 17:24:00;;;;;;;2.72;1.05;;;;;;;;;;12537756;23;20062;-81
2022/07/26 17:29:01;;;;;;;3.08;1.15;;;;;;;;;;12540156;23;20007;-80
2022/07/26 17:34:02;;;;;;;2.45;1.05;;;;;;;;;;12538984;23;20003;-79
2022/07/26 17:39:03;;;;;;;1.13;0.60;;;;;;;;;;12538731;23;20092;-81
2022/07/26 17:44:04;;;;;;;2.28;1.08;;;;;;;;;;12540643;23;20018;-81
2022/07/26 17:49:05;;;;;;;3.40;1.13;;;;;;;;;;12538688;23;20002;-81
2022/07/26 17:54:07;;;;;;;2.78;1.15;;;;;;;;;;12540573;23;20004;-81
2022/07/26 17:59:08;;;;;;;2.50;0.90;;;;;;;;;;12537220;23;20006;-81
2022/07/26 18:04:09;;;;;;;1.83;1.02;;;;;;;;;;12536759;23;20007;-81
2022/07/26 18:09:10;;;;;;;2.97;0.95;;;;;;;;;;12513522;23;20515;-81
2022/07/26 18:14:11;;;;;;;3.00;1.00;;;;;;;;;;12538133;23;20462;-81
2022/07/26 18:19:13;;;;;;;3.97;1.00;;;;;;;;;;12563399;23;20030;-81
2022/07/26 18:24:14;;;;;;;3.67;1.20;;;;;;;;;;12538301;23;20007;-81
2022/07/26 18:29:15;;;;;;;2.67;1.10;;;;;;;;;;12539698;23;20039;-81
2022/07/26 18:34:16;;;;;;;1.98;0.98;;;;;;;;;;12563826;23;19999;-80
2022/07/26 18:39:17;;;;;;;4.20;1.05;;;;;;;;;;12599237;23;20027;-78
2022/07/26 18:44:18;;;;;;;3.03;1.10;;;;;;;;;;12612770;23;20003;-78
2022/07/26 18:49:20;;;;;;;2.15;0.98;;;;;;;;;;12588378;23;20003;-81
2022/07/26 18:54:21;;;;;;;3.20;1.05;;;;;;;;;;12585660;23;20011;-80
2022/07/26 18:59:22;;;;;;;2.85;1.00;;;;;;;;;;12548254;23;20007;-80
2022/07/26 19:04:23;;;;;;;5.30;1.48;;;;;;;;;;12549524;23;20089;-81
2022/07/26 19:09:24;;;;;;;1.38;0.90;;;;;;;;;;12563773;23;20011;-80
2022/07/26 19:14:25;;;;;;;4.90;1.15;;;;;;;;;;12589173;23;20071;-78
2022/07/26 19:19:26;;;;;;;5.07;1.63;;;;;;;;;;12591843;23;20019;-79
2022/07/26 19:24:30;;;;;;;2.38;1.10;;;;;;;;;;12615836;23;20026;-79
